createdAt,value
2023-03-05T00:00:22.220Z,100744.19
2023-03-05T00:02:53.511Z,100741.47
2023-03-05T00:05:28.185Z,100753.84
2023-03-05T00:07:59.756Z,100738.06
2023-03-05T00:10:31.644Z,100737.16
2023-03-05T00:13:03.558Z,100730.78
2023-03-05T00:15:36.126Z,100732.84
2023-03-05T00:18:08.113Z,100729.13
2023-03-05T00:20:39.469Z,100729.25
2023-03-05T00:23:10.886Z,100729.88
2023-03-05T00:25:42.875Z,100726.75
2023-03-05T00:28:14.541Z,100708.72
2023-03-05T00:30:46.150Z,100702.50
2023-03-05T00:33:17.882Z,100709.44
2023-03-05T00:35:49.637Z,100717.75
2023-03-05T00:38:21.088Z,100707.78
2023-03-05T00:40:53.649Z,100696.50
2023-03-05T00:43:25.143Z,100691.19
2023-03-05T00:45:56.420Z,100693.16
2023-03-05T00:48:28.253Z,100696.78
2023-03-05T00:51:00.354Z,100692.75
2023-03-05T00:53:31.526Z,100695.38
2023-03-05T00:56:03.206Z,100697.22
2023-03-05T00:58:34.525Z,100700.63
2023-03-05T01:01:06.232Z,100693.81
2023-03-05T01:03:39.210Z,100689.13
2023-03-05T01:06:13.846Z,100680.69
2023-03-05T01:08:46.245Z,100679.75
2023-03-05T01:11:17.408Z,100679.16
2023-03-05T01:13:49.745Z,100678.38
2023-03-05T01:16:21.192Z,100677.78
2023-03-05T01:18:52.763Z,100673.31
2023-03-05T01:21:25.590Z,100671.28
2023-03-05T01:23:57.809Z,100671.06
2023-03-05T01:26:30.321Z,100668.25
2023-03-05T01:29:02.048Z,100670.03
2023-03-05T01:31:33.462Z,100669.47
2023-03-05T01:34:05.267Z,100661.69
2023-03-05T01:36:36.884Z,100661.03
2023-03-05T01:39:08.438Z,100660.94
2023-03-05T01:41:39.167Z,100661.84
2023-03-05T01:44:18.453Z,100652.13
2023-03-05T01:46:49.869Z,100640.69
2023-03-05T01:49:26.013Z,100637.59
2023-03-05T01:52:11.790Z,100643.09
2023-03-05T01:55:11.002Z,100629.13
2023-03-05T01:57:46.109Z,100628.88
2023-03-05T02:00:20.135Z,100614.63
2023-03-05T02:02:52.886Z,100612.31
2023-03-05T02:05:32.957Z,100616.81
2023-03-05T02:08:07.668Z,100610.63
2023-03-05T02:10:50.568Z,100616.88
2023-03-05T02:13:30.654Z,100617.69
2023-03-05T02:16:03.696Z,100609.53
2023-03-05T02:18:35.345Z,100611.09
2023-03-05T02:21:12.016Z,100593.84
2023-03-05T02:23:43.678Z,100581.69
2023-03-05T02:26:14.997Z,100585.94
2023-03-05T02:28:58.225Z,100588.16
2023-03-05T02:31:30.546Z,100595.75
2023-03-05T02:34:02.017Z,100594.19
2023-03-05T02:36:33.531Z,100592.59
2023-03-05T02:39:09.545Z,100578.66
2023-03-05T02:41:44.346Z,100572.47
2023-03-05T02:44:16.153Z,100578.84
2023-03-05T02:46:46.886Z,100572.72
2023-03-05T02:49:18.525Z,100570.72
2023-03-05T02:51:50.188Z,100559.31
2023-03-05T02:54:21.881Z,100567.53
2023-03-05T02:56:53.431Z,100567.97
2023-03-05T02:59:26.052Z,100560.97
2023-03-05T03:01:56.640Z,100562.00
2023-03-05T03:04:28.066Z,100553.16
2023-03-05T03:07:00.324Z,100546.75
2023-03-05T03:09:33.104Z,100538.88
2023-03-05T03:12:05.198Z,100541.41
2023-03-05T03:14:42.873Z,100546.97
2023-03-05T03:17:16.600Z,100549.00
2023-03-05T03:19:49.595Z,100548.03
2023-03-05T03:22:21.176Z,100546.78
2023-03-05T03:24:52.234Z,100543.91
2023-03-05T03:27:22.833Z,100539.69
2023-03-05T03:29:54.205Z,100541.00
2023-03-05T03:32:24.842Z,100536.94
2023-03-05T03:34:56.071Z,100543.06
2023-03-05T03:37:27.828Z,100546.25
2023-03-05T03:39:59.217Z,100548.72
2023-03-05T03:42:30.520Z,100537.91
2023-03-05T03:45:02.036Z,100542.41
2023-03-05T03:47:33.839Z,100533.25
2023-03-05T03:50:05.490Z,100534.66
2023-03-05T03:52:36.830Z,100542.66
2023-03-05T03:55:08.652Z,100540.00
2023-03-05T03:57:40.279Z,100536.94
2023-03-05T04:00:13.554Z,100541.31
2023-03-05T04:02:45.997Z,100539.09
2023-03-05T04:05:16.570Z,100548.94
2023-03-05T04:07:52.079Z,100544.25
2023-03-05T04:10:23.732Z,100554.44
2023-03-05T04:12:55.063Z,100554.88
2023-03-05T04:15:26.890Z,100560.31
2023-03-05T04:17:58.899Z,100543.50
2023-03-05T04:20:31.013Z,100548.44
2023-03-05T04:23:01.574Z,100545.72
2023-03-05T04:25:32.834Z,100547.91
2023-03-05T04:28:04.274Z,100549.19
2023-03-05T04:30:35.724Z,100548.94
2023-03-05T04:33:07.408Z,100550.41
2023-03-05T04:35:38.941Z,100555.13
2023-03-05T04:38:09.693Z,100555.72
2023-03-05T04:40:41.213Z,100563.03
2023-03-05T04:43:12.739Z,100556.59
2023-03-05T04:45:45.262Z,100565.34
2023-03-05T04:48:17.002Z,100563.53
2023-03-05T04:50:48.217Z,100567.25
2023-03-05T04:53:19.717Z,100574.84
2023-03-05T04:55:54.220Z,100575.09
2023-03-05T04:58:29.715Z,100577.41
2023-03-05T05:01:05.434Z,100583.75
2023-03-05T05:03:37.037Z,100581.75
2023-03-05T05:06:08.396Z,100582.94
2023-03-05T05:08:40.401Z,100584.84
2023-03-05T05:11:16.153Z,100594.75
2023-03-05T05:13:47.878Z,100591.09
2023-03-05T05:16:18.645Z,100590.13
2023-03-05T05:18:50.321Z,100594.13
2023-03-05T05:21:22.593Z,100597.50
2023-03-05T05:23:53.370Z,100597.25
2023-03-05T05:26:24.922Z,100596.28
2023-03-05T05:28:56.307Z,100593.31
2023-03-05T05:31:26.992Z,100595.34
2023-03-05T05:33:58.305Z,100589.66
2023-03-05T05:36:29.701Z,100594.22
2023-03-05T05:39:01.038Z,100589.53
2023-03-05T05:41:32.387Z,100591.03
2023-03-05T05:44:03.731Z,100594.28
2023-03-05T05:46:35.132Z,100587.63
2023-03-05T05:49:06.351Z,100595.38
2023-03-05T05:51:38.040Z,100599.41
2023-03-05T05:54:09.147Z,100598.13
2023-03-05T05:56:40.549Z,100590.41
2023-03-05T05:59:13.158Z,100593.41
2023-03-05T06:01:44.649Z,100599.56
2023-03-05T06:04:16.316Z,100600.78
2023-03-05T06:06:47.686Z,100603.44
2023-03-05T06:09:18.666Z,100609.84
2023-03-05T06:11:50.240Z,100608.59
2023-03-05T06:14:21.955Z,100610.72
2023-03-05T06:16:52.614Z,100605.06
2023-03-05T06:19:24.146Z,100607.22
2023-03-05T06:21:55.955Z,100609.03
2023-03-05T06:24:27.219Z,100606.00
2023-03-05T06:26:58.884Z,100616.03
2023-03-05T06:29:29.903Z,100615.94
2023-03-05T06:32:01.000Z,100619.53
2023-03-05T06:34:32.271Z,100622.28
2023-03-05T06:37:04.044Z,100631.34
2023-03-05T06:39:35.213Z,100630.88
2023-03-05T06:42:06.725Z,100628.25
2023-03-05T06:44:39.814Z,100627.88
2023-03-05T06:47:11.988Z,100638.06
2023-03-05T06:49:43.184Z,100636.47
2023-03-05T06:52:14.317Z,100633.72
2023-03-05T06:54:45.379Z,100643.50
2023-03-05T06:57:16.375Z,100650.41
2023-03-05T06:59:47.947Z,100648.06
2023-03-05T07:02:20.608Z,100649.78
2023-03-05T07:04:52.879Z,100657.91
2023-03-05T07:07:24.221Z,100663.78
2023-03-05T07:09:55.367Z,100668.03
2023-03-05T07:12:26.503Z,100663.97
2023-03-05T07:14:58.083Z,100668.50
2023-03-05T07:17:30.030Z,100668.84
2023-03-05T07:20:01.469Z,100666.28
2023-03-05T07:22:33.485Z,100676.25
2023-03-05T07:25:04.992Z,100683.75
2023-03-05T07:27:42.208Z,100681.53
2023-03-05T07:30:14.001Z,100685.50
2023-03-05T07:32:45.213Z,100691.94
2023-03-05T07:35:16.928Z,100692.53
2023-03-05T07:37:47.543Z,100695.13
2023-03-05T07:40:18.784Z,100704.72
2023-03-05T07:42:49.945Z,100700.25
2023-03-05T07:45:31.144Z,100711.84
2023-03-05T07:48:02.365Z,100717.41
2023-03-05T07:50:34.953Z,100715.13
2023-03-05T07:53:06.277Z,100713.19
2023-03-05T07:55:37.664Z,100724.75
2023-03-05T07:58:08.443Z,100730.19
2023-03-05T08:00:39.474Z,100737.81
2023-03-05T08:03:10.891Z,100740.25
2023-03-05T08:05:43.264Z,100733.97
2023-03-05T08:08:15.053Z,100735.47
2023-03-05T08:10:46.332Z,100738.59
2023-03-05T08:13:17.789Z,100747.69
2023-03-05T08:15:49.105Z,100744.06
2023-03-05T08:18:21.038Z,100746.34
2023-03-05T08:20:52.540Z,100751.00
2023-03-05T08:23:24.602Z,100751.34
2023-03-05T08:25:56.489Z,100756.78
2023-03-05T08:28:27.782Z,100751.72
2023-03-05T08:30:59.270Z,100753.88
2023-03-05T08:33:31.654Z,100750.22
2023-03-05T08:36:04.049Z,100744.25
2023-03-05T08:38:35.177Z,100753.66
2023-03-05T08:41:07.186Z,100751.22
2023-03-05T08:43:37.588Z,100754.56
2023-03-05T08:46:08.801Z,100764.03
2023-03-05T08:48:40.225Z,100762.94
2023-03-05T08:51:14.472Z,100756.78
2023-03-05T08:53:47.015Z,100765.44
2023-03-05T08:56:18.429Z,100761.53
2023-03-05T08:58:49.932Z,100772.44
2023-03-05T09:01:21.833Z,100768.19
2023-03-05T09:03:53.034Z,100763.84
2023-03-05T09:06:24.256Z,100767.22
2023-03-05T09:08:56.149Z,100784.63
2023-03-05T09:11:26.717Z,100780.53
2023-03-05T09:13:58.304Z,100780.34
2023-03-05T09:16:29.467Z,100779.47
2023-03-05T09:19:02.013Z,100787.13
2023-03-05T09:21:33.859Z,100782.44
2023-03-05T09:24:05.939Z,100787.88
2023-03-05T09:26:37.603Z,100788.44
2023-03-05T09:29:10.045Z,100784.88
2023-03-05T09:31:41.509Z,100785.09
2023-03-05T09:34:13.882Z,100799.66
2023-03-05T09:36:45.293Z,100786.78
2023-03-05T09:39:17.018Z,100795.66
2023-03-05T09:41:54.173Z,100800.34
2023-03-05T09:44:36.218Z,100801.81
2023-03-05T09:47:07.633Z,100800.16
2023-03-05T09:50:01.587Z,100798.03
2023-03-05T09:53:21.283Z,100782.53
2023-03-05T09:55:58.071Z,100778.34
2023-03-05T09:58:47.711Z,100778.06
2023-03-05T10:01:23.881Z,100780.09
2023-03-05T10:03:59.618Z,100779.50
2023-03-05T10:06:45.768Z,100788.50
2023-03-05T10:09:29.765Z,100793.28
2023-03-05T10:12:34.256Z,100797.72
2023-03-05T10:15:05.870Z,100801.28
2023-03-05T10:17:49.250Z,100800.16
2023-03-05T10:20:59.422Z,100793.16
2023-03-05T10:23:32.979Z,100788.69
2023-03-05T10:26:13.429Z,100794.03
2023-03-05T10:29:06.548Z,100801.88
2023-03-05T10:31:40.843Z,100804.50
2023-03-05T10:34:15.250Z,100807.94
2023-03-05T10:37:01.814Z,100804.38
2023-03-05T10:39:43.243Z,100800.16
2023-03-05T10:42:32.150Z,100799.88
2023-03-05T10:45:13.197Z,100806.84
2023-03-05T10:47:52.132Z,100787.41
2023-03-05T10:50:29.148Z,100810.56
2023-03-05T10:53:06.201Z,100811.78
2023-03-05T10:55:37.779Z,100805.84
2023-03-05T10:58:12.791Z,100773.81
2023-03-05T11:01:19.734Z,100802.25
2023-03-05T11:04:00.852Z,100804.66
2023-03-05T11:06:40.054Z,100810.97
2023-03-05T11:09:23.115Z,100817.03
2023-03-05T11:12:16.036Z,100809.91
2023-03-05T11:14:50.539Z,100808.38
2023-03-05T11:17:32.579Z,100805.41
2023-03-05T11:20:29.396Z,100808.47
2023-03-05T11:23:19.363Z,100806.50
2023-03-05T11:26:05.199Z,100800.44
2023-03-05T11:28:42.945Z,100800.44
2023-03-05T11:31:23.298Z,100801.03
2023-03-05T11:34:11.634Z,100806.25
2023-03-05T11:36:45.476Z,100809.75
2023-03-05T11:39:22.491Z,100812.03
2023-03-05T11:41:56.560Z,100805.38
2023-03-05T11:44:37.490Z,100811.34
2023-03-05T11:47:26.974Z,100816.50
2023-03-05T11:50:05.473Z,100808.22
2023-03-05T11:52:49.386Z,100810.59
2023-03-05T11:55:24.666Z,100802.53
2023-03-05T11:58:09.750Z,100801.41
2023-03-05T12:00:45.762Z,100783.81
2023-03-05T12:03:28.669Z,100803.91
2023-03-05T12:06:10.572Z,100803.91
2023-03-05T12:08:45.075Z,100802.53
2023-03-05T12:11:37.488Z,100807.69
2023-03-05T12:14:27.379Z,100804.16
2023-03-05T12:17:01.627Z,100799.34
2023-03-05T12:19:56.141Z,100804.78
2023-03-05T12:22:30.311Z,100807.84
2023-03-05T12:25:36.903Z,100810.59
2023-03-05T12:28:17.701Z,100815.78
2023-03-05T12:30:49.316Z,100812.81
2023-03-05T12:33:41.096Z,100808.28
2023-03-05T12:36:24.579Z,100810.47
2023-03-05T12:38:57.247Z,100815.41
2023-03-05T12:41:35.962Z,100819.44
2023-03-05T12:44:11.240Z,100812.34
2023-03-05T12:46:45.102Z,100815.09
2023-03-05T12:49:22.764Z,100810.75
2023-03-05T12:51:55.669Z,100801.44
2023-03-05T12:54:42.704Z,100800.06
2023-03-05T12:57:31.100Z,100799.03
2023-03-05T13:00:13.275Z,100799.06
2023-03-05T13:02:46.637Z,100788.47
2023-03-05T13:05:24.176Z,100788.28
2023-03-05T13:07:55.519Z,100798.63
2023-03-05T13:10:30.270Z,100800.75
2023-03-05T13:13:01.664Z,100811.38
2023-03-05T13:15:33.051Z,100816.03
2023-03-05T13:18:04.942Z,100817.38
2023-03-05T13:20:42.088Z,100808.38
2023-03-05T13:23:28.011Z,100804.06
2023-03-05T13:26:16.662Z,100808.97
2023-03-05T13:29:08.538Z,100809.22
2023-03-05T13:31:51.597Z,100809.22
2023-03-05T13:34:46.567Z,100813.03
2023-03-05T13:37:26.756Z,100810.31
2023-03-05T13:40:29.865Z,100805.97
2023-03-05T13:43:15.609Z,100807.06
2023-03-05T13:45:49.913Z,100808.69
2023-03-05T13:48:21.927Z,100811.13
2023-03-05T13:51:00.142Z,100803.81
2023-03-05T13:53:32.824Z,100808.41
2023-03-05T13:56:07.352Z,100803.78
2023-03-05T13:58:56.366Z,100809.50
2023-03-05T14:01:33.883Z,100803.22
2023-03-05T14:04:17.618Z,100813.28
2023-03-05T14:06:54.067Z,100807.00
2023-03-05T14:09:29.733Z,100814.34
2023-03-05T14:12:06.330Z,100811.88
2023-03-05T14:14:39.895Z,100811.88
2023-03-05T14:17:29.940Z,100813.53
2023-03-05T14:20:24.786Z,100805.94
2023-03-05T14:23:03.537Z,100818.47
2023-03-05T14:25:41.920Z,100814.66
2023-03-05T14:28:19.297Z,100816.03
2023-03-05T14:30:53.001Z,100814.94
2023-03-05T14:33:32.639Z,100815.50
2023-03-05T14:36:04.818Z,100811.13
2023-03-05T14:38:36.744Z,100816.28
2023-03-05T14:41:38.511Z,100815.75
2023-03-05T14:44:20.905Z,100815.75
2023-03-05T14:46:52.560Z,100810.88
2023-03-05T14:49:23.862Z,100818.19
2023-03-05T14:51:55.178Z,100819.81
2023-03-05T14:54:27.915Z,100807.09
2023-03-05T14:56:59.763Z,100819.56
2023-03-05T14:59:31.091Z,100818.75
2023-03-05T15:02:02.676Z,100820.38
2023-03-05T15:04:33.641Z,100827.16
2023-03-05T15:07:05.181Z,100824.72
2023-03-05T15:09:36.378Z,100832.06
2023-03-05T15:12:08.333Z,100827.19
2023-03-05T15:14:39.413Z,100836.16
2023-03-05T15:17:17.616Z,100823.13
2023-03-05T15:19:49.646Z,100825.84
2023-03-05T15:22:21.276Z,100827.19
2023-03-05T15:24:52.462Z,100815.53
2023-03-05T15:27:23.754Z,100832.38
2023-03-05T15:29:54.983Z,100818.78
2023-03-05T15:32:26.240Z,100816.63
2023-03-05T15:34:58.377Z,100826.41
2023-03-05T15:37:29.541Z,100825.31
2023-03-05T15:40:00.956Z,100826.34
2023-03-05T15:42:33.501Z,100824.47
2023-03-05T15:45:04.879Z,100817.69
2023-03-05T15:47:35.900Z,100822.56
2023-03-05T15:50:08.225Z,100823.91
2023-03-05T15:52:39.464Z,100825.81
2023-03-05T15:55:11.375Z,100820.91
2023-03-05T15:57:45.460Z,100818.75
2023-03-05T16:00:21.041Z,100811.66
2023-03-05T16:02:53.453Z,100815.75
2023-03-05T16:05:25.562Z,100816.28
2023-03-05T16:07:57.521Z,100819.28
2023-03-05T16:10:29.899Z,100817.97
2023-03-05T16:13:06.060Z,100827.16
2023-03-05T16:15:38.122Z,100828.25
2023-03-05T16:18:13.125Z,100834.28
2023-03-05T16:20:44.738Z,100826.91
2023-03-05T16:23:16.149Z,100827.47
2023-03-05T16:25:47.680Z,100832.88
2023-03-05T16:28:19.346Z,100828.00
2023-03-05T16:31:00.388Z,100828.25
2023-03-05T16:33:32.225Z,100833.97
2023-03-05T16:36:26.578Z,100830.41
2023-03-05T16:38:59.604Z,100836.66
2023-03-05T16:41:31.219Z,100840.75
2023-03-05T16:44:02.818Z,100850.81
2023-03-05T16:46:35.194Z,100842.66
2023-03-05T16:49:07.366Z,100846.47
2023-03-05T16:51:38.750Z,100844.59
2023-03-05T16:54:10.743Z,100841.88
2023-03-05T16:56:41.524Z,100850.28
2023-03-05T16:59:13.258Z,100846.75
2023-03-05T17:01:44.451Z,100851.66
2023-03-05T17:04:16.005Z,100852.44
2023-03-05T17:06:51.106Z,100854.38
2023-03-05T17:09:25.808Z,100854.38
2023-03-05T17:11:57.395Z,100855.72
2023-03-05T17:14:28.888Z,100863.88
2023-03-05T17:16:59.524Z,100863.88
2023-03-05T17:19:31.260Z,100861.69
2023-03-05T17:22:02.437Z,100872.03
2023-03-05T17:24:34.694Z,100873.66
2023-03-05T17:27:05.975Z,100882.38
2023-03-05T17:29:37.169Z,100881.25
2023-03-05T17:32:08.980Z,100882.34
2023-03-05T17:34:40.341Z,100886.16
2023-03-05T17:37:12.452Z,100887.25
2023-03-05T17:39:43.041Z,100894.84
2023-03-05T17:42:14.540Z,100902.72
2023-03-05T17:44:45.755Z,100892.97
2023-03-05T17:47:16.950Z,100901.94
2023-03-05T17:49:47.856Z,100899.22
2023-03-05T17:52:19.865Z,100904.91
2023-03-05T17:54:54.556Z,100908.97
2023-03-05T17:57:25.604Z,100912.78
2023-03-05T17:59:56.787Z,100916.84
2023-03-05T18:02:27.865Z,100920.38
2023-03-05T18:04:59.352Z,100920.91
2023-03-05T18:07:30.500Z,100935.56
2023-03-05T18:10:02.135Z,100934.47
2023-03-05T18:12:34.079Z,100934.75
2023-03-05T18:15:07.278Z,100952.44
2023-03-05T18:17:38.734Z,100953.25
2023-03-05T18:20:12.353Z,100940.19
2023-03-05T18:22:43.696Z,100951.91
2023-03-05T18:25:14.854Z,100958.97
2023-03-05T18:27:46.393Z,100965.19
2023-03-05T18:30:17.660Z,100968.22
2023-03-05T18:32:49.083Z,100971.72
2023-03-05T18:35:20.667Z,100976.91
2023-03-05T18:37:53.177Z,100979.63
2023-03-05T18:40:27.087Z,100979.06
2023-03-05T18:42:59.399Z,100985.59
2023-03-05T18:45:31.575Z,100987.78
2023-03-05T18:48:02.885Z,100994.00
2023-03-05T18:50:34.435Z,100999.19
2023-03-05T18:53:05.791Z,100994.56
2023-03-05T18:55:37.185Z,100999.47
2023-03-05T18:58:08.687Z,101003.81
2023-03-05T19:00:40.194Z,101011.69
2023-03-05T19:03:13.143Z,101013.03
2023-03-05T19:05:44.336Z,101015.50
2023-03-05T19:08:15.749Z,101029.66
2023-03-05T19:10:46.808Z,101018.78
2023-03-05T19:13:37.420Z,101026.34
2023-03-05T19:16:23.003Z,101022.84
2023-03-05T19:19:22.451Z,101020.94
2023-03-05T19:22:01.143Z,101024.22
2023-03-05T19:24:34.818Z,101022.84
2023-03-05T19:27:12.577Z,101033.50
2023-03-05T19:29:44.939Z,101034.59
2023-03-05T19:32:19.080Z,101037.84
2023-03-05T19:34:51.178Z,101038.94
2023-03-05T19:37:22.789Z,101043.53
2023-03-05T19:39:55.103Z,101037.84
2023-03-05T19:42:26.250Z,101040.56
2023-03-05T19:44:59.955Z,101044.09
2023-03-05T19:47:33.471Z,101042.19
2023-03-05T19:50:05.910Z,101043.53
2023-03-05T19:52:37.409Z,101041.63
2023-03-05T19:55:09.432Z,101045.44
2023-03-05T19:57:40.981Z,101056.06
2023-03-05T20:00:12.023Z,101051.69
2023-03-05T20:02:43.093Z,101059.56
2023-03-05T20:05:14.235Z,101071.81
2023-03-05T20:07:45.617Z,101069.09
2023-03-05T20:10:17.080Z,101071.25
2023-03-05T20:12:49.709Z,101067.13
2023-03-05T20:15:24.176Z,101072.81
2023-03-05T20:17:55.603Z,101082.91
2023-03-05T20:20:27.141Z,101081.56
2023-03-05T20:22:57.533Z,101084.53
2023-03-05T20:25:28.640Z,101086.66
2023-03-05T20:27:59.684Z,101094.06
2023-03-05T20:30:32.959Z,101092.63
2023-03-05T20:33:05.684Z,101099.22
2023-03-05T20:35:37.478Z,101107.34
2023-03-05T20:38:32.781Z,101094.84
2023-03-05T20:41:06.525Z,101106.72
2023-03-05T20:43:42.256Z,101117.00
2023-03-05T20:46:22.843Z,101116.91
2023-03-05T20:48:58.147Z,101116.47
2023-03-05T20:51:36.517Z,101124.47
2023-03-05T20:54:13.706Z,101117.22
2023-03-05T20:56:45.639Z,101122.53
2023-03-05T20:59:18.425Z,101131.38
2023-03-05T21:01:49.825Z,101138.00
2023-03-05T21:04:21.008Z,101128.50
2023-03-05T21:06:55.675Z,101134.59
2023-03-05T21:09:29.692Z,101132.94
2023-03-05T21:12:00.882Z,101153.16
2023-03-05T21:14:38.148Z,101151.06
2023-03-05T21:17:10.834Z,101148.34
2023-03-05T21:19:42.342Z,101145.91
2023-03-05T21:22:14.016Z,101150.50
2023-03-05T21:24:57.164Z,101142.03
2023-03-05T21:27:28.505Z,101141.94
2023-03-05T21:29:59.887Z,101138.22
2023-03-05T21:32:31.149Z,101143.44
2023-03-05T21:35:02.950Z,101142.25
2023-03-05T21:37:34.190Z,101148.03
2023-03-05T21:40:06.202Z,101142.91
2023-03-05T21:42:38.083Z,101130.13
2023-03-05T21:45:11.219Z,101139.13
2023-03-05T21:47:42.946Z,101127.47
2023-03-05T21:50:17.085Z,101143.06
2023-03-05T21:52:48.823Z,101133.06
2023-03-05T21:55:23.970Z,101133.97
2023-03-05T21:57:55.387Z,101135.00
2023-03-05T22:00:27.051Z,101136.78
2023-03-05T22:02:58.438Z,101137.03
2023-03-05T22:05:29.928Z,101136.88
2023-03-05T22:08:01.345Z,101132.34
2023-03-05T22:10:32.780Z,101142.81
2023-03-05T22:13:13.293Z,101135.84
2023-03-05T22:15:52.041Z,101140.41
2023-03-05T22:18:26.501Z,101122.09
2023-03-05T22:20:58.608Z,101125.53
2023-03-05T22:23:32.191Z,101120.66
2023-03-05T22:26:08.970Z,101128.94
2023-03-05T22:28:44.004Z,101130.16
2023-03-05T22:31:23.235Z,101121.84
2023-03-05T22:33:54.938Z,101126.06
2023-03-05T22:36:26.446Z,101116.66
2023-03-05T22:38:57.949Z,101122.19
2023-03-05T22:41:29.235Z,101119.41
2023-03-05T22:44:01.471Z,101119.94
2023-03-05T22:46:32.629Z,101119.00
2023-03-05T22:49:03.644Z,101119.59
2023-03-05T22:51:34.980Z,101129.00
2023-03-05T22:54:06.503Z,101111.97
2023-03-05T22:56:38.526Z,101101.41
2023-03-05T22:59:09.645Z,101101.97
2023-03-05T23:01:41.005Z,101112.00
2023-03-05T23:04:20.549Z,101103.91
2023-03-05T23:06:52.049Z,101105.41
2023-03-05T23:09:23.882Z,101099.75
2023-03-05T23:11:54.905Z,101107.66
2023-03-05T23:14:26.579Z,101096.91
2023-03-05T23:16:57.740Z,101099.25
2023-03-05T23:19:28.888Z,101095.03
2023-03-05T23:22:00.091Z,101101.56
2023-03-05T23:24:31.314Z,101102.03
2023-03-05T23:27:03.052Z,101096.66
2023-03-05T23:29:49.742Z,101082.31
2023-03-05T23:32:21.137Z,101088.63
2023-03-05T23:34:52.665Z,101105.34
2023-03-05T23:37:23.924Z,101098.81
2023-03-05T23:39:54.625Z,101090.34
2023-03-05T23:42:26.048Z,101077.69
2023-03-05T23:44:58.037Z,101074.38
2023-03-05T23:47:29.664Z,101074.56
2023-03-05T23:50:00.682Z,101071.38
2023-03-05T23:52:33.131Z,101069.59
2023-03-05T23:55:04.446Z,101077.81
2023-03-05T23:57:37.164Z,101076.09
